createdAt,value
2022-08-17T00:00:49.459Z,62.97
2022-08-17T00:03:30.102Z,63.03
2022-08-17T00:06:12.399Z,62.88
2022-08-17T00:08:48.708Z,62.91
2022-08-17T00:11:26.059Z,63.34
2022-08-17T00:14:01.411Z,63.48
2022-08-17T00:16:56.273Z,63.09
2022-08-17T00:19:29.128Z,63.39
2022-08-17T00:22:34.726Z,63.31
2022-08-17T00:24:54.891Z,63.15
2022-08-17T00:27:29.066Z,63.31
2022-08-17T00:30:31.386Z,63.40
2022-08-17T00:33:28.441Z,63.96
2022-08-17T00:35:58.207Z,63.74
2022-08-17T00:38:28.068Z,63.75
2022-08-17T00:41:00.007Z,63.54
2022-08-17T00:43:45.761Z,63.62
2022-08-17T00:46:40.472Z,64.01
2022-08-17T00:49:11.013Z,63.84
2022-08-17T00:51:46.760Z,64.02
2022-08-17T00:54:16.660Z,64.20
2022-08-17T00:57:07.418Z,64.61
2022-08-17T00:59:56.015Z,64.54
2022-08-17T01:02:41.713Z,64.38
2022-08-17T01:05:20.700Z,64.54
2022-08-17T01:07:51.122Z,64.59
2022-08-17T01:10:59.497Z,64.39
2022-08-17T01:13:13.110Z,64.23
2022-08-17T01:15:48.488Z,64.37
2022-08-17T01:18:16.771Z,64.42
2022-08-17T01:20:55.122Z,64.76
2022-08-17T01:23:25.861Z,64.97
2022-08-17T01:25:58.021Z,64.77
2022-08-17T01:28:52.438Z,64.54
2022-08-17T01:31:19.719Z,65.14
2022-08-17T01:33:48.068Z,65.12
2022-08-17T01:36:16.108Z,65.21
2022-08-17T01:38:44.130Z,65.05
2022-08-17T01:41:16.566Z,65.16
2022-08-17T01:43:51.787Z,64.94
2022-08-17T01:46:24.632Z,65.05
2022-08-17T01:48:52.926Z,65.01
2022-08-17T01:51:21.770Z,65.17
2022-08-17T01:53:53.008Z,65.32
2022-08-17T01:56:26.495Z,64.92
2022-08-17T01:58:54.864Z,64.87
2022-08-17T02:01:28.158Z,65.17
2022-08-17T02:04:00.560Z,65.34
2022-08-17T02:06:45.349Z,65.65
2022-08-17T02:09:23.291Z,65.86
2022-08-17T02:11:57.545Z,65.86
2022-08-17T02:14:26.000Z,65.74
2022-08-17T02:16:56.130Z,65.61
2022-08-17T02:19:24.338Z,65.52
2022-08-17T02:21:55.088Z,65.66
2022-08-17T02:25:00.815Z,65.75
2022-08-17T02:27:17.852Z,65.60
2022-08-17T02:32:40.480Z,65.31
2022-08-17T02:35:09.917Z,65.39
2022-08-17T02:37:38.276Z,65.52
2022-08-17T02:44:14.925Z,65.85
2022-08-17T02:47:02.180Z,66.11
2022-08-17T02:49:46.271Z,66.19
2022-08-17T02:52:43.335Z,66.40
2022-08-17T02:55:49.974Z,66.33
2022-08-17T02:58:35.854Z,66.39
2022-08-17T03:01:17.855Z,66.23
2022-08-17T03:04:01.706Z,66.27
2022-08-17T03:06:33.057Z,66.19
2022-08-17T03:09:09.102Z,66.23
2022-08-17T03:11:41.992Z,66.13
2022-08-17T03:14:12.319Z,65.86
2022-08-17T03:16:42.769Z,65.78
2022-08-17T03:19:13.832Z,65.88
2022-08-17T03:21:54.806Z,65.75
2022-08-17T03:24:28.964Z,65.79
2022-08-17T03:26:59.489Z,65.94
2022-08-17T03:29:29.040Z,65.79
2022-08-17T03:32:02.019Z,65.84
2022-08-17T03:34:30.772Z,65.78
2022-08-17T03:36:59.357Z,65.89
2022-08-17T03:39:28.322Z,65.91
2022-08-17T03:42:07.869Z,65.43
2022-08-17T03:44:57.900Z,65.20
2022-08-17T03:47:47.787Z,65.63
2022-08-17T03:50:37.027Z,66.28
2022-08-17T03:53:34.495Z,66.43
2022-08-17T03:56:22.974Z,66.59
2022-08-17T03:58:51.503Z,66.51
2022-08-17T04:01:19.915Z,66.28
2022-08-17T04:03:52.076Z,66.28
2022-08-17T04:06:22.988Z,66.50
2022-08-17T04:08:51.689Z,66.61
2022-08-17T04:11:41.610Z,66.44
2022-08-17T04:14:51.660Z,66.74
2022-08-17T04:17:34.823Z,67.14
2022-08-17T04:20:07.987Z,66.90
2022-08-17T04:22:36.595Z,66.71
2022-08-17T04:25:18.978Z,66.66
2022-08-17T04:27:52.050Z,66.77
2022-08-17T04:30:21.508Z,66.86
2022-08-17T04:33:04.215Z,66.82
2022-08-17T04:35:41.892Z,66.48
2022-08-17T04:38:13.990Z,66.86
2022-08-17T04:41:06.358Z,67.02
2022-08-17T04:43:37.541Z,66.66
2022-08-17T04:46:08.939Z,66.86
2022-08-17T04:49:03.587Z,67.12
2022-08-17T04:51:56.833Z,66.80
2022-08-17T04:55:21.180Z,66.35
2022-08-17T04:58:03.436Z,66.19
2022-08-17T05:00:35.026Z,65.95
2022-08-17T05:03:40.431Z,66.07
2022-08-17T05:06:29.018Z,65.93
2022-08-17T05:09:06.784Z,65.98
2022-08-17T05:12:38.059Z,66.12
2022-08-17T05:15:39.024Z,66.08
2022-08-17T05:18:13.834Z,66.02
2022-08-17T05:20:45.912Z,66.05
2022-08-17T05:23:17.981Z,65.75
2022-08-17T05:25:50.516Z,65.54
2022-08-17T05:28:24.093Z,65.54
2022-08-17T05:31:25.482Z,65.39
2022-08-17T05:33:54.206Z,65.40
2022-08-17T05:36:41.933Z,64.89
2022-08-17T05:39:16.320Z,64.92
2022-08-17T05:41:48.845Z,64.89
2022-08-17T05:44:19.353Z,64.35
2022-08-17T05:46:55.240Z,63.72
2022-08-17T05:49:28.033Z,63.72
2022-08-17T05:52:22.050Z,63.42
2022-08-17T05:55:01.175Z,63.14
2022-08-17T05:58:51.643Z,63.00
2022-08-17T06:01:27.136Z,62.61
2022-08-17T06:03:59.518Z,62.21
2022-08-17T06:11:58.818Z,61.77
2022-08-17T06:14:34.398Z,61.06
2022-08-17T06:17:10.493Z,60.54
2022-08-17T06:20:01.871Z,59.81
2022-08-17T06:22:36.586Z,60.09
2022-08-17T06:25:20.506Z,60.22
2022-08-17T06:27:58.588Z,60.17
2022-08-17T06:30:58.455Z,60.12
2022-08-17T06:33:37.290Z,59.80
2022-08-17T06:36:40.265Z,59.58
2022-08-17T06:39:19.847Z,59.36
2022-08-17T06:42:05.439Z,58.59
2022-08-17T06:44:49.789Z,58.58
2022-08-17T06:47:52.984Z,57.93
2022-08-17T06:50:41.596Z,56.92
2022-08-17T06:53:22.123Z,56.55
2022-08-17T06:56:09.079Z,56.39
2022-08-17T06:58:40.298Z,56.35
2022-08-17T07:01:18.756Z,56.33
2022-08-17T07:03:54.671Z,56.13
2022-08-17T07:06:29.921Z,55.96
2022-08-17T07:09:13.725Z,55.40
2022-08-17T07:11:56.983Z,55.00
2022-08-17T07:15:05.983Z,54.50
2022-08-17T07:17:47.448Z,53.29
2022-08-17T07:20:31.530Z,52.41
2022-08-17T07:23:30.417Z,52.34
2022-08-17T07:26:09.050Z,52.83
2022-08-17T07:28:37.428Z,52.39
2022-08-17T07:31:12.931Z,52.03
2022-08-17T07:34:00.299Z,51.80
2022-08-17T07:36:33.815Z,51.41
2022-08-17T07:39:03.682Z,51.11
2022-08-17T07:41:53.243Z,50.45
2022-08-17T07:44:26.981Z,49.15
2022-08-17T07:47:14.353Z,47.99
2022-08-17T07:49:50.566Z,47.81
2022-08-17T07:52:51.828Z,47.87
2022-08-17T07:55:31.836Z,47.94
2022-08-17T07:58:00.298Z,47.61
2022-08-17T08:00:32.606Z,47.15
2022-08-17T08:03:06.494Z,46.79
2022-08-17T08:05:49.695Z,46.13
2022-08-17T08:08:43.557Z,44.50
2022-08-17T08:11:15.481Z,43.87
2022-08-17T08:13:45.767Z,43.10
2022-08-17T08:16:27.157Z,42.26
2022-08-17T08:19:03.315Z,42.72
2022-08-17T08:22:16.650Z,42.78
2022-08-17T08:25:07.340Z,42.52
2022-08-17T08:27:54.853Z,41.49
2022-08-17T08:30:28.228Z,40.86
2022-08-17T08:33:20.904Z,41.53
2022-08-17T08:36:57.122Z,40.85
2022-08-17T08:39:19.758Z,40.76
2022-08-17T08:41:59.909Z,40.58
2022-08-17T08:45:00.140Z,40.72
2022-08-17T08:47:58.193Z,40.09
2022-08-17T08:51:15.795Z,39.58
2022-08-17T08:53:49.436Z,39.41
2022-08-17T08:57:11.573Z,39.58
2022-08-17T09:00:02.007Z,38.37
2022-08-17T09:02:35.146Z,38.13
2022-08-17T09:05:14.380Z,38.62
2022-08-17T09:07:58.871Z,38.30
2022-08-17T09:10:50.350Z,37.61
2022-08-17T09:13:38.283Z,38.03
2022-08-17T09:16:16.606Z,37.80
2022-08-17T09:19:02.550Z,37.27
2022-08-17T09:21:38.321Z,38.01
2022-08-17T09:24:25.682Z,37.74
2022-08-17T09:27:13.323Z,36.80
2022-08-17T09:29:49.241Z,36.75
2022-08-17T09:32:31.474Z,35.84
2022-08-17T09:35:09.449Z,36.17
2022-08-17T09:38:01.793Z,35.75
2022-08-17T09:41:03.048Z,34.93
2022-08-17T09:43:41.555Z,34.66
2022-08-17T09:46:19.348Z,34.89
2022-08-17T09:49:07.634Z,34.42
2022-08-17T09:51:49.510Z,34.30
2022-08-17T09:54:41.156Z,33.66
2022-08-17T09:57:31.626Z,33.37
2022-08-17T10:00:23.882Z,33.74
2022-08-17T10:03:16.551Z,31.97
2022-08-17T10:05:57.087Z,31.98
2022-08-17T10:08:52.604Z,31.32
2022-08-17T10:12:10.101Z,31.33
2022-08-17T10:14:55.125Z,30.61
2022-08-17T10:17:31.316Z,30.04
2022-08-17T10:20:14.889Z,30.00
2022-08-17T10:23:04.673Z,29.60
2022-08-17T10:25:56.047Z,29.61
2022-08-17T10:28:31.981Z,28.77
2022-08-17T10:31:33.689Z,28.91
2022-08-17T10:34:07.359Z,28.51
2022-08-17T10:37:09.517Z,28.50
2022-08-17T10:40:16.730Z,28.05
2022-08-17T10:43:07.358Z,27.81
2022-08-17T10:46:09.229Z,26.99
2022-08-17T10:49:04.414Z,26.79
2022-08-17T10:51:55.559Z,27.59
2022-08-17T10:54:49.723Z,27.18
2022-08-17T10:57:28.169Z,27.39
2022-08-17T11:00:35.647Z,28.33
2022-08-17T11:03:22.403Z,29.13
2022-08-17T11:06:29.599Z,30.17
2022-08-17T11:09:53.135Z,30.46
2022-08-17T11:12:33.674Z,29.36
2022-08-17T11:15:10.436Z,28.77
2022-08-17T11:17:51.333Z,28.83
2022-08-17T11:20:23.306Z,29.12
2022-08-17T11:23:26.174Z,29.05
2022-08-17T11:26:01.678Z,28.88
2022-08-17T11:28:36.064Z,29.08
2022-08-17T11:31:39.270Z,29.68
2022-08-17T11:34:18.891Z,29.41
2022-08-17T11:37:08.648Z,28.77
2022-08-17T11:39:49.092Z,27.82
2022-08-17T11:42:30.793Z,27.30
2022-08-17T11:45:08.033Z,26.50
2022-08-17T11:48:27.008Z,25.82
2022-08-17T11:51:47.204Z,25.61
2022-08-17T11:54:34.579Z,24.74
2022-08-17T11:57:41.858Z,24.81
2022-08-17T12:01:00.148Z,24.46
2022-08-17T12:03:33.502Z,24.75
2022-08-17T12:06:31.106Z,25.26
2022-08-17T12:09:24.772Z,24.81
2022-08-17T12:12:12.781Z,25.33
2022-08-17T12:15:09.582Z,25.69
2022-08-17T12:17:50.260Z,24.76
2022-08-17T12:20:28.434Z,24.37
2022-08-17T12:23:32.298Z,24.62
2022-08-17T12:26:01.598Z,24.26
2022-08-17T12:28:38.217Z,23.46
2022-08-17T12:31:26.402Z,23.17
2022-08-17T12:33:56.797Z,23.12
2022-08-17T12:36:28.267Z,22.86
2022-08-17T12:39:14.139Z,22.88
2022-08-17T12:41:47.145Z,23.32
2022-08-17T12:44:24.820Z,23.62
2022-08-17T12:50:28.684Z,23.48
2022-08-17T12:53:01.929Z,22.63
2022-08-17T12:55:37.632Z,22.15
2022-08-17T12:58:15.370Z,22.22
2022-08-17T13:00:50.047Z,23.11
2022-08-17T13:03:23.044Z,23.41
2022-08-17T13:05:58.085Z,23.33
2022-08-17T13:09:40.760Z,21.79
2022-08-17T13:15:36.160Z,22.20
2022-08-17T13:18:52.511Z,22.28
2022-08-17T13:21:31.138Z,21.82
2022-08-17T13:24:08.024Z,21.78
2022-08-17T13:26:48.701Z,21.81
2022-08-17T13:29:23.358Z,22.08
2022-08-17T13:32:45.623Z,22.27
2022-08-17T13:35:39.559Z,22.02
2022-08-17T13:38:38.570Z,21.65
2022-08-17T13:41:42.697Z,21.81
2022-08-17T13:44:35.135Z,21.72
2022-08-17T13:48:14.019Z,21.06
2022-08-17T13:51:58.570Z,21.10
2022-08-17T13:54:35.206Z,21.37
2022-08-17T13:57:18.169Z,21.27
2022-08-17T13:59:53.807Z,20.01
2022-08-17T14:02:27.630Z,20.71
2022-08-17T14:04:58.685Z,20.31
2022-08-17T14:07:32.130Z,19.80
2022-08-17T14:10:16.709Z,19.33
2022-08-17T14:12:46.682Z,19.64
2022-08-17T14:15:20.804Z,19.44
2022-08-17T14:17:57.097Z,19.02
2022-08-17T14:20:26.699Z,18.95
2022-08-17T14:22:56.130Z,18.85
2022-08-17T14:25:32.477Z,18.03
2022-08-17T14:28:10.198Z,17.67
2022-08-17T14:30:44.075Z,17.37
2022-08-17T14:33:14.598Z,17.65
2022-08-17T14:35:49.329Z,17.66
2022-08-17T14:38:19.570Z,17.16
2022-08-17T14:40:56.281Z,16.72
2022-08-17T14:43:44.739Z,16.72
2022-08-17T14:46:15.933Z,16.62
2022-08-17T14:48:55.156Z,16.49
2022-08-17T14:51:30.971Z,16.46
2022-08-17T14:54:00.665Z,15.79
2022-08-17T14:56:31.694Z,16.28
2022-08-17T14:59:10.047Z,16.16
2022-08-17T15:01:44.143Z,16.31
2022-08-17T15:04:21.463Z,15.62
2022-08-17T15:06:51.625Z,15.19
2022-08-17T15:09:26.033Z,15.35
2022-08-17T15:11:57.338Z,15.28
2022-08-17T15:14:26.651Z,15.28
2022-08-17T15:16:55.104Z,15.46
2022-08-17T15:19:26.142Z,14.94
2022-08-17T15:21:54.460Z,14.89
2022-08-17T15:24:22.620Z,14.87
2022-08-17T15:26:52.690Z,15.05
2022-08-17T15:29:23.270Z,14.51
2022-08-17T15:31:52.267Z,15.14
2022-08-17T15:34:22.559Z,15.04
2022-08-17T15:36:50.751Z,14.77
2022-08-17T15:39:19.562Z,14.50
2022-08-17T15:41:58.437Z,14.29
2022-08-17T15:44:32.537Z,14.17
2022-08-17T15:47:03.622Z,13.63
2022-08-17T15:49:31.802Z,13.40
2022-08-17T15:52:00.040Z,13.90
2022-08-17T15:54:36.085Z,13.98
2022-08-17T15:57:05.711Z,14.39
2022-08-17T15:59:35.139Z,13.78
2022-08-17T16:03:01.187Z,13.81
2022-08-17T16:05:10.691Z,13.69
2022-08-17T16:07:39.317Z,13.96
2022-08-17T16:10:08.595Z,14.60
2022-08-17T16:12:47.907Z,15.52
2022-08-17T16:15:16.749Z,16.22
2022-08-17T16:17:45.125Z,17.16
2022-08-17T16:20:20.610Z,17.86
2022-08-17T16:22:50.548Z,17.56
2022-08-17T16:25:38.378Z,17.26
2022-08-17T16:28:22.406Z,17.48
2022-08-17T16:30:58.894Z,18.01
2022-08-17T16:33:28.410Z,18.94
2022-08-17T16:35:58.310Z,19.76
2022-08-17T16:38:27.223Z,20.76
2022-08-17T16:40:56.582Z,21.29
2022-08-17T16:43:25.719Z,21.61
2022-08-17T16:45:55.013Z,22.42
2022-08-17T16:48:29.036Z,21.79
2022-08-17T16:51:03.404Z,21.44
2022-08-17T16:53:33.607Z,21.43
2022-08-17T16:56:02.021Z,21.54
2022-08-17T16:58:31.131Z,21.51
2022-08-17T17:00:59.920Z,22.78
2022-08-17T17:03:30.043Z,23.90
2022-08-17T17:06:10.180Z,24.34
2022-08-17T17:09:00.882Z,25.37
2022-08-17T17:11:41.792Z,25.96
2022-08-17T17:14:15.548Z,26.26
2022-08-17T17:16:52.561Z,26.59
2022-08-17T17:19:40.603Z,27.64
2022-08-17T17:22:16.409Z,28.59
2022-08-17T17:24:53.959Z,29.64
2022-08-17T17:27:29.572Z,30.37
2022-08-17T17:30:09.952Z,31.12
2022-08-17T17:33:07.770Z,31.81
2022-08-17T17:35:50.838Z,32.54
2022-08-17T17:38:23.633Z,33.15
2022-08-17T17:41:04.514Z,33.84
2022-08-17T17:43:39.836Z,34.60
2022-08-17T17:46:30.616Z,34.75
2022-08-17T17:49:06.087Z,35.50
2022-08-17T17:51:54.808Z,35.98
2022-08-17T17:54:43.049Z,36.85
2022-08-17T17:57:22.416Z,37.30
2022-08-17T18:00:00.722Z,37.56
2022-08-17T18:03:07.357Z,38.03
2022-08-17T18:05:58.369Z,38.61
2022-08-17T18:09:02.191Z,39.70
2022-08-17T18:11:53.001Z,40.62
2022-08-17T18:14:55.519Z,41.52
2022-08-17T18:17:24.539Z,42.09
2022-08-17T18:21:46.231Z,42.79
2022-08-17T18:23:17.984Z,43.57
2022-08-17T18:25:50.443Z,44.74
2022-08-17T18:28:23.671Z,44.91
2022-08-17T18:31:11.260Z,45.55
2022-08-17T18:33:42.471Z,45.97
2022-08-17T18:36:11.808Z,46.31
2022-08-17T18:38:42.227Z,46.52
2022-08-17T18:41:19.289Z,46.66
2022-08-17T18:44:19.608Z,46.82
2022-08-17T18:47:05.620Z,47.15
2022-08-17T18:49:36.578Z,47.59
2022-08-17T18:52:32.953Z,47.64
2022-08-17T18:55:56.272Z,48.03
2022-08-17T18:58:53.910Z,48.78
2022-08-17T19:02:16.096Z,48.89
2022-08-17T19:05:18.621Z,49.68
2022-08-17T19:07:50.499Z,49.88
2022-08-17T19:10:46.714Z,50.23
2022-08-17T19:13:24.069Z,50.72
2022-08-17T19:16:15.692Z,51.06
2022-08-17T19:18:50.244Z,51.46
2022-08-17T19:21:35.374Z,51.66
2022-08-17T19:24:20.201Z,52.12
2022-08-17T19:27:19.894Z,52.26
2022-08-17T19:30:11.890Z,52.84
2022-08-17T19:32:41.194Z,53.07
2022-08-17T19:35:17.994Z,53.21
2022-08-17T19:38:13.173Z,53.27
2022-08-17T19:41:41.102Z,53.51
2022-08-17T19:44:53.270Z,53.88
2022-08-17T19:47:54.839Z,53.97
2022-08-17T19:50:50.204Z,54.38
2022-08-17T19:54:04.780Z,54.66
2022-08-17T19:57:10.583Z,54.67
2022-08-17T20:00:00.077Z,54.67
2022-08-17T20:02:32.734Z,54.69
2022-08-17T20:05:06.850Z,55.23
2022-08-17T20:08:09.752Z,55.54
2022-08-17T20:11:02.634Z,55.47
2022-08-17T20:13:56.817Z,55.49
2022-08-17T20:16:26.295Z,55.74
2022-08-17T20:19:25.278Z,56.17
2022-08-17T20:22:50.391Z,56.22
2022-08-17T20:26:04.527Z,56.40
2022-08-17T20:28:35.988Z,56.69
2022-08-17T20:31:09.981Z,56.99
2022-08-17T20:33:38.378Z,57.10
2022-08-17T20:36:24.895Z,57.24
2022-08-17T20:38:59.901Z,57.38
2022-08-17T20:41:33.419Z,57.50
2022-08-17T20:44:05.275Z,57.26
2022-08-17T20:46:36.669Z,57.61
2022-08-17T20:49:28.077Z,57.76
2022-08-17T20:52:13.727Z,57.86
2022-08-17T20:54:53.579Z,57.69
2022-08-17T20:57:31.777Z,57.67
2022-08-17T21:00:14.203Z,57.63
2022-08-17T21:02:49.878Z,57.75
2022-08-17T21:05:36.099Z,57.79
2022-08-17T21:08:53.815Z,57.62
2022-08-17T21:12:02.910Z,57.56
2022-08-17T21:14:34.522Z,57.59
2022-08-17T21:17:31.176Z,57.62
2022-08-17T21:20:13.067Z,57.55
2022-08-17T21:23:05.312Z,57.59
2022-08-17T21:25:49.310Z,57.65
2022-08-17T21:29:00.929Z,57.52
2022-08-17T21:31:35.269Z,57.57
2022-08-17T21:34:15.956Z,57.71
2022-08-17T21:36:48.563Z,57.61
2022-08-17T21:39:24.025Z,57.82
2022-08-17T21:42:00.534Z,57.67
2022-08-17T21:44:38.046Z,57.40
2022-08-17T21:47:26.558Z,57.45
2022-08-17T21:50:18.808Z,57.49
2022-08-17T21:52:56.295Z,57.10
2022-08-17T21:55:31.221Z,57.03
2022-08-17T21:58:24.568Z,57.11
2022-08-17T22:01:21.366Z,56.93
2022-08-17T22:03:55.829Z,56.93
2022-08-17T22:06:34.577Z,56.73
2022-08-17T22:09:25.913Z,56.96
2022-08-17T22:12:17.118Z,56.79
2022-08-17T22:14:51.507Z,56.35
2022-08-17T22:17:30.160Z,56.29
2022-08-17T22:20:19.135Z,56.12
2022-08-17T22:23:10.292Z,56.10
2022-08-17T22:25:42.436Z,55.92
2022-08-17T22:28:12.851Z,55.52
2022-08-17T22:31:08.344Z,55.23
2022-08-17T22:33:47.957Z,55.23
2022-08-17T22:36:41.996Z,54.98
2022-08-17T22:39:11.290Z,54.85
2022-08-17T22:42:04.473Z,55.10
2022-08-17T22:44:49.129Z,54.95
2022-08-17T22:47:22.976Z,54.83
2022-08-17T22:50:00.746Z,54.85
2022-08-17T22:52:34.411Z,54.79
2022-08-17T22:55:34.287Z,54.88
2022-08-17T22:58:32.081Z,54.74
2022-08-17T23:01:34.369Z,54.80
2022-08-17T23:04:38.863Z,55.03
2022-08-17T23:07:22.567Z,54.98
2022-08-17T23:10:06.064Z,54.90
2022-08-17T23:12:39.966Z,54.73
2022-08-17T23:15:20.730Z,54.53
2022-08-17T23:17:49.368Z,54.38
2022-08-17T23:20:19.273Z,54.54
2022-08-17T23:22:51.382Z,54.33
2022-08-17T23:25:41.031Z,54.34
2022-08-17T23:28:11.361Z,54.35
2022-08-17T23:30:43.849Z,54.12
2022-08-17T23:33:34.374Z,54.38
2022-08-17T23:36:10.006Z,54.50
2022-08-17T23:38:38.803Z,54.67
2022-08-17T23:41:12.180Z,54.73
2022-08-17T23:43:49.131Z,54.80
2022-08-17T23:46:22.723Z,55.06
2022-08-17T23:48:55.104Z,55.26
2022-08-17T23:51:39.901Z,55.34
2022-08-17T23:54:21.942Z,55.58
2022-08-17T23:56:56.622Z,55.69
2022-08-17T23:59:28.760Z,56.11
